sensor_id;sensor_type;location;lat;lon;timestamp;temperature;humidity
210;DHT22;90;48.810;9.120;2023-05-10T00:01:32;15.40;93.10
210;DHT22;90;48.810;9.120;2023-05-10T00:03:59;15.40;93.60
210;DHT22;90;48.810;9.120;2023-05-10T00:06:26;15.30;93.70
210;DHT22;90;48.810;9.120;2023-05-10T00:08:53;15.10;93.20
210;DHT22;90;48.810;9.120;2023-05-10T00:11:20;14.90;92.60
210;DHT22;90;48.810;9.120;2023-05-10T00:13:48;14.70;92.00
210;DHT22;90;48.810;9.120;2023-05-10T00:16:15;14.70;92.50
210;DHT22;90;48.810;9.120;2023-05-10T00:18:41;14.60;91.80
210;DHT22;90;48.810;9.120;2023-05-10T00:21:08;14.60;92.50
210;DHT22;90;48.810;9.120;2023-05-10T00:23:34;14.60;91.40
210;DHT22;90;48.810;9.120;2023-05-10T00:26:01;14.50;92.10
210;DHT22;90;48.810;9.120;2023-05-10T00:28:28;14.50;91.50
210;DHT22;90;48.810;9.120;2023-05-10T00:30:56;14.60;92.20
210;DHT22;90;48.810;9.120;2023-05-10T00:33:23;14.50;92.00
210;DHT22;90;48.810;9.120;2023-05-10T00:35:50;14.50;92.00
210;DHT22;90;48.810;9.120;2023-05-10T00:38:17;14.40;92.20
210;DHT22;90;48.810;9.120;2023-05-10T00:40:43;14.40;92.00
210;DHT22;90;48.810;9.120;2023-05-10T00:43:10;14.40;92.00
210;DHT22;90;48.810;9.120;2023-05-10T00:45:37;14.30;91.90
210;DHT22;90;48.810;9.120;2023-05-10T00:48:07;14.30;92.00
210;DHT22;90;48.810;9.120;2023-05-10T00:50:34;14.30;91.80
210;DHT22;90;48.810;9.120;2023-05-10T00:53:01;14.30;92.10
210;DHT22;90;48.810;9.120;2023-05-10T00:55:28;14.30;91.90
210;DHT22;90;48.810;9.120;2023-05-10T00:57:55;14.30;91.70
210;DHT22;90;48.810;9.120;2023-05-10T01:00:22;14.30;92.10
210;DHT22;90;48.810;9.120;2023-05-10T01:02:49;14.20;92.10
210;DHT22;90;48.810;9.120;2023-05-10T01:05:17;14.20;92.30
210;DHT22;90;48.810;9.120;2023-05-10T01:07:44;14.20;91.80
210;DHT22;90;48.810;9.120;2023-05-10T01:10:11;14.20;92.20
210;DHT22;90;48.810;9.120;2023-05-10T01:12:40;14.20;92.10
210;DHT22;90;48.810;9.120;2023-05-10T01:15:08;14.20;92.20
210;DHT22;90;48.810;9.120;2023-05-10T01:17:38;14.20;92.30
210;DHT22;90;48.810;9.120;2023-05-10T01:20:07;14.20;92.40
210;DHT22;90;48.810;9.120;2023-05-10T01:23:04;14.20;92.10
210;DHT22;90;48.810;9.120;2023-05-10T01:28:58;14.20;92.30
210;DHT22;90;48.810;9.120;2023-05-10T01:31:58;14.20;91.80
210;DHT22;90;48.810;9.120;2023-05-10T01:34:35;14.10;92.00
210;DHT22;90;48.810;9.120;2023-05-10T01:37:07;14.00;92.30
210;DHT22;90;48.810;9.120;2023-05-10T01:39:40;14.00;92.10
210;DHT22;90;48.810;9.120;2023-05-10T01:42:11;14.00;92.50
210;DHT22;90;48.810;9.120;2023-05-10T01:44:41;14.00;92.20
210;DHT22;90;48.810;9.120;2023-05-10T01:47:15;14.00;92.80
210;DHT22;90;48.810;9.120;2023-05-10T01:49:47;14.00;92.80
210;DHT22;90;48.810;9.120;2023-05-10T01:52:18;14.10;92.00
210;DHT22;90;48.810;9.120;2023-05-10T01:54:50;14.00;92.20
210;DHT22;90;48.810;9.120;2023-05-10T01:57:20;14.10;92.20
210;DHT22;90;48.810;9.120;2023-05-10T01:59:50;14.20;91.70
210;DHT22;90;48.810;9.120;2023-05-10T02:02:20;14.10;91.40
210;DHT22;90;48.810;9.120;2023-05-10T02:04:49;14.20;91.50
210;DHT22;90;48.810;9.120;2023-05-10T02:07:17;14.30;91.00
210;DHT22;90;48.810;9.120;2023-05-10T02:09:45;14.30;91.10
210;DHT22;90;48.810;9.120;2023-05-10T02:12:13;14.30;91.10
210;DHT22;90;48.810;9.120;2023-05-10T02:14:42;14.40;91.00
210;DHT22;90;48.810;9.120;2023-05-10T02:17:10;14.50;90.60
210;DHT22;90;48.810;9.120;2023-05-10T02:19:40;14.50;90.40
210;DHT22;90;48.810;9.120;2023-05-10T02:22:09;14.50;90.40
210;DHT22;90;48.810;9.120;2023-05-10T02:24:37;14.60;90.40
210;DHT22;90;48.810;9.120;2023-05-10T02:27:06;14.60;90.30
210;DHT22;90;48.810;9.120;2023-05-10T02:29:34;14.60;90.30
210;DHT22;90;48.810;9.120;2023-05-10T02:32:02;14.70;90.00
210;DHT22;90;48.810;9.120;2023-05-10T02:34:30;14.70;90.20
210;DHT22;90;48.810;9.120;2023-05-10T02:36:59;14.70;90.30
210;DHT22;90;48.810;9.120;2023-05-10T02:39:28;14.70;90.20
210;DHT22;90;48.810;9.120;2023-05-10T02:41:57;14.70;90.00
210;DHT22;90;48.810;9.120;2023-05-10T02:44:27;14.70;90.20
210;DHT22;90;48.810;9.120;2023-05-10T02:46:56;14.70;90.20
210;DHT22;90;48.810;9.120;2023-05-10T02:49:24;14.70;90.10
210;DHT22;90;48.810;9.120;2023-05-10T02:51:56;14.70;90.10
210;DHT22;90;48.810;9.120;2023-05-10T02:54:30;14.70;90.10
210;DHT22;90;48.810;9.120;2023-05-10T02:56:59;14.80;90.20
210;DHT22;90;48.810;9.120;2023-05-10T02:59:26;14.80;89.90
210;DHT22;90;48.810;9.120;2023-05-10T03:01:53;14.80;89.70
210;DHT22;90;48.810;9.120;2023-05-10T03:04:20;14.80;89.60
210;DHT22;90;48.810;9.120;2023-05-10T03:06:47;14.80;89.50
210;DHT22;90;48.810;9.120;2023-05-10T03:09:14;14.80;89.30
210;DHT22;90;48.810;9.120;2023-05-10T03:11:50;14.70;89.60
210;DHT22;90;48.810;9.120;2023-05-10T03:14:25;14.70;89.40
210;DHT22;90;48.810;9.120;2023-05-10T03:16:58;14.70;89.30
210;DHT22;90;48.810;9.120;2023-05-10T03:19:32;14.70;89.40
210;DHT22;90;48.810;9.120;2023-05-10T03:22:02;14.70;89.00
210;DHT22;90;48.810;9.120;2023-05-10T03:24:30;14.80;89.20
210;DHT22;90;48.810;9.120;2023-05-10T03:27:00;14.70;89.20
210;DHT22;90;48.810;9.120;2023-05-10T03:29:28;14.80;89.10
210;DHT22;90;48.810;9.120;2023-05-10T03:31:57;14.80;89.00
210;DHT22;90;48.810;9.120;2023-05-10T03:34:24;14.80;88.90
210;DHT22;90;48.810;9.120;2023-05-10T03:36:51;14.80;89.20
210;DHT22;90;48.810;9.120;2023-05-10T03:39:18;14.80;89.00
210;DHT22;90;48.810;9.120;2023-05-10T03:41:44;14.70;89.20
210;DHT22;90;48.810;9.120;2023-05-10T03:44:12;14.70;89.40
210;DHT22;90;48.810;9.120;2023-05-10T03:46:39;14.70;89.50
210;DHT22;90;48.810;9.120;2023-05-10T03:49:06;14.80;89.60
210;DHT22;90;48.810;9.120;2023-05-10T03:51:33;14.70;89.90
210;DHT22;90;48.810;9.120;2023-05-10T03:53:59;14.70;90.00
210;DHT22;90;48.810;9.120;2023-05-10T03:56:26;14.80;89.60
210;DHT22;90;48.810;9.120;2023-05-10T03:58:53;14.80;89.40
210;DHT22;90;48.810;9.120;2023-05-10T04:01:21;14.80;89.00
210;DHT22;90;48.810;9.120;2023-05-10T04:03:47;14.80;88.50
210;DHT22;90;48.810;9.120;2023-05-10T04:06:14;14.80;88.40
210;DHT22;90;48.810;9.120;2023-05-10T04:08:41;14.70;88.60
210;DHT22;90;48.810;9.120;2023-05-10T04:11:08;14.70;88.30
210;DHT22;90;48.810;9.120;2023-05-10T04:13:35;14.80;88.50
210;DHT22;90;48.810;9.120;2023-05-10T04:16:02;14.80;88.60
210;DHT22;90;48.810;9.120;2023-05-10T04:18:30;14.80;88.70
210;DHT22;90;48.810;9.120;2023-05-10T04:20:57;14.80;88.70
210;DHT22;90;48.810;9.120;2023-05-10T04:23:24;14.70;88.70
210;DHT22;90;48.810;9.120;2023-05-10T04:25:51;14.70;88.70
210;DHT22;90;48.810;9.120;2023-05-10T04:28:17;14.70;88.50
210;DHT22;90;48.810;9.120;2023-05-10T04:30:44;14.60;88.70
210;DHT22;90;48.810;9.120;2023-05-10T04:33:11;14.60;88.90
210;DHT22;90;48.810;9.120;2023-05-10T04:35:39;14.60;89.10
210;DHT22;90;48.810;9.120;2023-05-10T04:38:06;14.60;88.90
210;DHT22;90;48.810;9.120;2023-05-10T04:40:32;14.70;88.80
210;DHT22;90;48.810;9.120;2023-05-10T04:42:59;14.70;88.80
210;DHT22;90;48.810;9.120;2023-05-10T04:45:26;14.70;88.50
210;DHT22;90;48.810;9.120;2023-05-10T04:47:59;14.70;88.60
210;DHT22;90;48.810;9.120;2023-05-10T04:50:26;14.80;88.30
210;DHT22;90;48.810;9.120;2023-05-10T04:52:54;14.90;88.10
210;DHT22;90;48.810;9.120;2023-05-10T04:55:20;14.90;88.00
210;DHT22;90;48.810;9.120;2023-05-10T04:57:47;14.90;88.10
210;DHT22;90;48.810;9.120;2023-05-10T05:00:15;14.90;88.00
210;DHT22;90;48.810;9.120;2023-05-10T05:02:44;15.00;87.70
210;DHT22;90;48.810;9.120;2023-05-10T05:05:11;15.00;87.90
210;DHT22;90;48.810;9.120;2023-05-10T05:07:38;15.00;88.00
210;DHT22;90;48.810;9.120;2023-05-10T05:10:08;15.00;88.10
210;DHT22;90;48.810;9.120;2023-05-10T05:12:35;15.00;88.30
210;DHT22;90;48.810;9.120;2023-05-10T05:15:01;15.10;87.80
210;DHT22;90;48.810;9.120;2023-05-10T05:17:30;15.20;87.80
210;DHT22;90;48.810;9.120;2023-05-10T05:19:56;15.10;88.10
210;DHT22;90;48.810;9.120;2023-05-10T05:22:23;15.30;87.50
210;DHT22;90;48.810;9.120;2023-05-10T05:24:53;15.30;87.20
210;DHT22;90;48.810;9.120;2023-05-10T05:27:21;15.30;87.40
210;DHT22;90;48.810;9.120;2023-05-10T05:29:49;15.30;87.30
210;DHT22;90;48.810;9.120;2023-05-10T05:32:16;15.20;87.30
210;DHT22;90;48.810;9.120;2023-05-10T05:34:44;15.20;87.30
210;DHT22;90;48.810;9.120;2023-05-10T05:37:13;15.30;87.70
210;DHT22;90;48.810;9.120;2023-05-10T05:39:39;15.20;87.30
210;DHT22;90;48.810;9.120;2023-05-10T05:42:06;15.20;87.70
210;DHT22;90;48.810;9.120;2023-05-10T05:44:34;15.20;87.50
210;DHT22;90;48.810;9.120;2023-05-10T05:47:01;15.20;87.60
210;DHT22;90;48.810;9.120;2023-05-10T05:49:28;15.10;88.10
210;DHT22;90;48.810;9.120;2023-05-10T05:51:58;15.10;88.10
210;DHT22;90;48.810;9.120;2023-05-10T05:54:24;15.10;88.40
210;DHT22;90;48.810;9.120;2023-05-10T05:56:54;15.10;88.40
210;DHT22;90;48.810;9.120;2023-05-10T05:59:21;15.10;88.30
210;DHT22;90;48.810;9.120;2023-05-10T06:01:49;15.40;88.50
210;DHT22;90;48.810;9.120;2023-05-10T06:04:16;15.60;87.50
210;DHT22;90;48.810;9.120;2023-05-10T06:06:43;15.50;87.20
210;DHT22;90;48.810;9.120;2023-05-10T06:09:10;15.50;87.20
210;DHT22;90;48.810;9.120;2023-05-10T06:11:37;15.50;87.20
210;DHT22;90;48.810;9.120;2023-05-10T06:14:05;15.40;87.50
210;DHT22;90;48.810;9.120;2023-05-10T06:16:32;15.40;88.00
210;DHT22;90;48.810;9.120;2023-05-10T06:19:01;15.40;88.20
210;DHT22;90;48.810;9.120;2023-05-10T06:21:27;15.30;87.50
210;DHT22;90;48.810;9.120;2023-05-10T06:23:54;15.40;87.80
210;DHT22;90;48.810;9.120;2023-05-10T06:26:21;15.40;87.70
210;DHT22;90;48.810;9.120;2023-05-10T06:28:48;15.30;87.20
210;DHT22;90;48.810;9.120;2023-05-10T06:31:14;15.30;87.10
210;DHT22;90;48.810;9.120;2023-05-10T06:33:41;15.30;87.90
210;DHT22;90;48.810;9.120;2023-05-10T06:36:09;15.40;88.40
210;DHT22;90;48.810;9.120;2023-05-10T06:38:36;15.30;88.50
210;DHT22;90;48.810;9.120;2023-05-10T06:41:03;15.30;88.90
210;DHT22;90;48.810;9.120;2023-05-10T06:43:29;15.30;88.20
210;DHT22;90;48.810;9.120;2023-05-10T06:45:56;15.40;87.10
210;DHT22;90;48.810;9.120;2023-05-10T06:48:23;15.40;86.70
210;DHT22;90;48.810;9.120;2023-05-10T06:50:50;15.40;86.30
210;DHT22;90;48.810;9.120;2023-05-10T06:53:18;15.30;86.50
210;DHT22;90;48.810;9.120;2023-05-10T06:55:44;15.20;86.50
210;DHT22;90;48.810;9.120;2023-05-10T06:58:11;15.20;86.30
210;DHT22;90;48.810;9.120;2023-05-10T07:00:38;15.20;86.60
210;DHT22;90;48.810;9.120;2023-05-10T07:03:05;15.30;86.40
210;DHT22;90;48.810;9.120;2023-05-10T07:05:32;15.30;86.30
210;DHT22;90;48.810;9.120;2023-05-10T07:07:59;15.20;85.30
210;DHT22;90;48.810;9.120;2023-05-10T07:10:27;15.20;85.10
210;DHT22;90;48.810;9.120;2023-05-10T07:12:54;15.30;84.90
210;DHT22;90;48.810;9.120;2023-05-10T07:15:21;15.30;85.00
210;DHT22;90;48.810;9.120;2023-05-10T07:17:48;15.40;85.50
210;DHT22;90;48.810;9.120;2023-05-10T07:20:14;15.50;85.30
210;DHT22;90;48.810;9.120;2023-05-10T07:22:41;15.50;85.10
210;DHT22;90;48.810;9.120;2023-05-10T07:25:08;15.60;85.00
210;DHT22;90;48.810;9.120;2023-05-10T07:27:37;15.60;85.20
210;DHT22;90;48.810;9.120;2023-05-10T07:30:04;15.60;85.60
210;DHT22;90;48.810;9.120;2023-05-10T07:32:31;15.70;85.30
210;DHT22;90;48.810;9.120;2023-05-10T07:34:58;15.70;85.20
210;DHT22;90;48.810;9.120;2023-05-10T07:37:25;15.90;84.90
210;DHT22;90;48.810;9.120;2023-05-10T07:39:52;16.00;85.00
210;DHT22;90;48.810;9.120;2023-05-10T07:42:19;16.00;84.40
210;DHT22;90;48.810;9.120;2023-05-10T07:44:47;16.10;83.30
210;DHT22;90;48.810;9.120;2023-05-10T07:47:13;16.00;82.50
210;DHT22;90;48.810;9.120;2023-05-10T07:49:40;16.00;81.90
210;DHT22;90;48.810;9.120;2023-05-10T07:52:07;16.00;82.10
210;DHT22;90;48.810;9.120;2023-05-10T07:54:33;16.00;80.90
210;DHT22;90;48.810;9.120;2023-05-10T07:57:00;16.00;81.10
210;DHT22;90;48.810;9.120;2023-05-10T07:59:27;15.90;81.30
210;DHT22;90;48.810;9.120;2023-05-10T08:01:55;15.80;80.70
210;DHT22;90;48.810;9.120;2023-05-10T08:04:21;15.70;80.90
210;DHT22;90;48.810;9.120;2023-05-10T08:06:48;15.70;81.80
210;DHT22;90;48.810;9.120;2023-05-10T08:09:15;15.60;82.50
210;DHT22;90;48.810;9.120;2023-05-10T08:11:43;15.50;82.70
210;DHT22;90;48.810;9.120;2023-05-10T08:14:09;15.60;82.00
210;DHT22;90;48.810;9.120;2023-05-10T08:16:36;15.60;81.60
210;DHT22;90;48.810;9.120;2023-05-10T08:19:05;15.60;79.80
210;DHT22;90;48.810;9.120;2023-05-10T08:21:31;15.50;79.50
210;DHT22;90;48.810;9.120;2023-05-10T08:23:58;15.50;79.60
210;DHT22;90;48.810;9.120;2023-05-10T08:26:25;15.50;80.20
210;DHT22;90;48.810;9.120;2023-05-10T08:28:52;15.60;80.30
210;DHT22;90;48.810;9.120;2023-05-10T08:31:18;15.70;78.90
210;DHT22;90;48.810;9.120;2023-05-10T08:33:45;15.50;78.50
210;DHT22;90;48.810;9.120;2023-05-10T08:36:13;15.50;78.40
210;DHT22;90;48.810;9.120;2023-05-10T08:38:45;15.50;78.60
210;DHT22;90;48.810;9.120;2023-05-10T08:41:11;15.40;79.00
210;DHT22;90;48.810;9.120;2023-05-10T08:43:39;15.40;78.10
210;DHT22;90;48.810;9.120;2023-05-10T08:46:07;15.50;79.20
210;DHT22;90;48.810;9.120;2023-05-10T08:48:36;15.60;79.20
210;DHT22;90;48.810;9.120;2023-05-10T08:51:04;15.80;78.70
210;DHT22;90;48.810;9.120;2023-05-10T08:53:33;15.80;77.40
210;DHT22;90;48.810;9.120;2023-05-10T08:56:02;15.90;77.70
210;DHT22;90;48.810;9.120;2023-05-10T08:58:29;15.80;77.90
210;DHT22;90;48.810;9.120;2023-05-10T09:00:57;15.90;77.60
210;DHT22;90;48.810;9.120;2023-05-10T09:03:24;15.80;77.50
210;DHT22;90;48.810;9.120;2023-05-10T09:05:50;15.80;78.40
210;DHT22;90;48.810;9.120;2023-05-10T09:08:19;15.80;78.50
210;DHT22;90;48.810;9.120;2023-05-10T09:10:48;16.10;78.40
210;DHT22;90;48.810;9.120;2023-05-10T09:13:15;16.20;78.40
210;DHT22;90;48.810;9.120;2023-05-10T09:15:44;16.10;77.50
210;DHT22;90;48.810;9.120;2023-05-10T09:18:11;16.10;75.50
210;DHT22;90;48.810;9.120;2023-05-10T09:20:38;16.20;76.20
210;DHT22;90;48.810;9.120;2023-05-10T09:23:05;16.20;74.70
210;DHT22;90;48.810;9.120;2023-05-10T09:25:36;16.10;75.20
210;DHT22;90;48.810;9.120;2023-05-10T09:28:07;16.10;74.80
210;DHT22;90;48.810;9.120;2023-05-10T09:30:35;16.00;74.50
210;DHT22;90;48.810;9.120;2023-05-10T09:33:02;16.00;75.20
210;DHT22;90;48.810;9.120;2023-05-10T09:35:31;16.10;75.50
210;DHT22;90;48.810;9.120;2023-05-10T09:38:04;16.10;74.90
210;DHT22;90;48.810;9.120;2023-05-10T09:40:31;16.20;74.50
210;DHT22;90;48.810;9.120;2023-05-10T09:43:00;16.20;73.90
210;DHT22;90;48.810;9.120;2023-05-10T09:45:30;16.10;74.20
210;DHT22;90;48.810;9.120;2023-05-10T09:47:58;16.00;75.30
210;DHT22;90;48.810;9.120;2023-05-10T09:50:26;16.00;75.50
210;DHT22;90;48.810;9.120;2023-05-10T09:52:56;16.10;75.30
210;DHT22;90;48.810;9.120;2023-05-10T09:55:25;16.20;74.10
210;DHT22;90;48.810;9.120;2023-05-10T09:58:00;16.20;74.10
210;DHT22;90;48.810;9.120;2023-05-10T10:00:29;16.30;75.00
210;DHT22;90;48.810;9.120;2023-05-10T10:03:00;16.20;75.20
210;DHT22;90;48.810;9.120;2023-05-10T10:05:30;16.10;76.20
210;DHT22;90;48.810;9.120;2023-05-10T10:07:58;16.20;75.40
210;DHT22;90;48.810;9.120;2023-05-10T10:10:25;16.30;74.60
210;DHT22;90;48.810;9.120;2023-05-10T10:12:52;16.30;74.50
210;DHT22;90;48.810;9.120;2023-05-10T10:15:20;16.40;74.10
210;DHT22;90;48.810;9.120;2023-05-10T10:17:48;16.40;74.30
210;DHT22;90;48.810;9.120;2023-05-10T10:20:16;16.50;74.10
210;DHT22;90;48.810;9.120;2023-05-10T10:22:43;16.70;74.30
210;DHT22;90;48.810;9.120;2023-05-10T10:25:12;16.80;74.50
210;DHT22;90;48.810;9.120;2023-05-10T10:27:47;17.20;74.80
210;DHT22;90;48.810;9.120;2023-05-10T10:30:23;17.30;69.60
210;DHT22;90;48.810;9.120;2023-05-10T10:33:06;17.00;70.80
210;DHT22;90;48.810;9.120;2023-05-10T10:35:35;16.90;72.70
210;DHT22;90;48.810;9.120;2023-05-10T10:38:03;16.90;73.40
210;DHT22;90;48.810;9.120;2023-05-10T10:40:30;16.90;73.40
210;DHT22;90;48.810;9.120;2023-05-10T10:42:58;16.70;72.10
210;DHT22;90;48.810;9.120;2023-05-10T10:46:09;16.60;73.20
210;DHT22;90;48.810;9.120;2023-05-10T10:48:38;16.50;73.30
210;DHT22;90;48.810;9.120;2023-05-10T10:51:04;16.50;74.40
210;DHT22;90;48.810;9.120;2023-05-10T10:53:31;16.50;72.90
210;DHT22;90;48.810;9.120;2023-05-10T10:56:06;16.30;67.00
210;DHT22;90;48.810;9.120;2023-05-10T10:58:35;16.30;67.80
210;DHT22;90;48.810;9.120;2023-05-10T11:01:11;16.10;68.10
210;DHT22;90;48.810;9.120;2023-05-10T11:03:40;15.90;68.70
210;DHT22;90;48.810;9.120;2023-05-10T11:06:07;15.70;68.90
210;DHT22;90;48.810;9.120;2023-05-10T11:08:41;15.70;69.20
210;DHT22;90;48.810;9.120;2023-05-10T11:11:09;15.50;69.80
210;DHT22;90;48.810;9.120;2023-05-10T11:13:40;15.60;70.60
210;DHT22;90;48.810;9.120;2023-05-10T11:16:16;15.60;69.40
210;DHT22;90;48.810;9.120;2023-05-10T11:18:58;15.60;69.70
210;DHT22;90;48.810;9.120;2023-05-10T11:21:27;15.50;70.00
210;DHT22;90;48.810;9.120;2023-05-10T11:23:54;15.60;71.00
210;DHT22;90;48.810;9.120;2023-05-10T11:26:29;15.90;71.20
210;DHT22;90;48.810;9.120;2023-05-10T11:28:56;16.00;69.90
210;DHT22;90;48.810;9.120;2023-05-10T11:31:24;16.10;68.50
210;DHT22;90;48.810;9.120;2023-05-10T11:33:54;16.10;69.30
210;DHT22;90;48.810;9.120;2023-05-10T11:36:23;16.20;70.50
210;DHT22;90;48.810;9.120;2023-05-10T11:38:51;16.30;69.00
210;DHT22;90;48.810;9.120;2023-05-10T11:41:19;16.50;68.40
210;DHT22;90;48.810;9.120;2023-05-10T11:43:49;16.40;68.90
210;DHT22;90;48.810;9.120;2023-05-10T11:46:17;16.40;68.80
210;DHT22;90;48.810;9.120;2023-05-10T11:48:45;16.30;69.50
210;DHT22;90;48.810;9.120;2023-05-10T11:51:14;16.30;70.10
210;DHT22;90;48.810;9.120;2023-05-10T11:53:41;16.30;69.60
210;DHT22;90;48.810;9.120;2023-05-10T11:56:08;16.20;69.00
210;DHT22;90;48.810;9.120;2023-05-10T11:58:36;15.90;70.10
210;DHT22;90;48.810;9.120;2023-05-10T12:01:04;15.80;71.70
210;DHT22;90;48.810;9.120;2023-05-10T12:03:31;15.70;71.50
210;DHT22;90;48.810;9.120;2023-05-10T12:05:59;15.80;71.50
210;DHT22;90;48.810;9.120;2023-05-10T12:08:28;15.80;72.00
210;DHT22;90;48.810;9.120;2023-05-10T12:11:04;15.90;71.60
210;DHT22;90;48.810;9.120;2023-05-10T12:13:31;16.00;71.70
210;DHT22;90;48.810;9.120;2023-05-10T12:15:58;16.10;71.80
210;DHT22;90;48.810;9.120;2023-05-10T12:18:26;16.20;71.00
210;DHT22;90;48.810;9.120;2023-05-10T12:20:53;16.30;70.90
210;DHT22;90;48.810;9.120;2023-05-10T12:23:20;16.30;70.40
210;DHT22;90;48.810;9.120;2023-05-10T12:25:48;16.40;70.50
210;DHT22;90;48.810;9.120;2023-05-10T12:28:15;16.50;69.00
210;DHT22;90;48.810;9.120;2023-05-10T12:30:45;16.60;67.40
210;DHT22;90;48.810;9.120;2023-05-10T12:33:13;16.50;67.20
210;DHT22;90;48.810;9.120;2023-05-10T12:35:46;16.60;65.50
210;DHT22;90;48.810;9.120;2023-05-10T12:38:27;16.60;66.20
210;DHT22;90;48.810;9.120;2023-05-10T12:40:57;16.50;64.70
210;DHT22;90;48.810;9.120;2023-05-10T12:43:24;16.60;66.40
210;DHT22;90;48.810;9.120;2023-05-10T12:45:51;16.70;66.70
210;DHT22;90;48.810;9.120;2023-05-10T12:48:18;16.70;65.30
210;DHT22;90;48.810;9.120;2023-05-10T12:50:45;16.60;65.90
210;DHT22;90;48.810;9.120;2023-05-10T12:53:13;16.60;65.80
210;DHT22;90;48.810;9.120;2023-05-10T12:55:41;16.70;65.40
210;DHT22;90;48.810;9.120;2023-05-10T12:58:09;16.60;65.90
210;DHT22;90;48.810;9.120;2023-05-10T13:00:35;16.50;66.40
210;DHT22;90;48.810;9.120;2023-05-10T13:03:03;16.40;66.90
210;DHT22;90;48.810;9.120;2023-05-10T13:05:30;16.40;67.10
210;DHT22;90;48.810;9.120;2023-05-10T13:07:57;16.50;67.30
210;DHT22;90;48.810;9.120;2023-05-10T13:10:24;16.50;66.10
210;DHT22;90;48.810;9.120;2023-05-10T13:12:50;16.50;65.90
210;DHT22;90;48.810;9.120;2023-05-10T13:15:18;16.40;66.20
210;DHT22;90;48.810;9.120;2023-05-10T13:17:45;16.40;66.50
210;DHT22;90;48.810;9.120;2023-05-10T13:20:12;16.50;65.60
210;DHT22;90;48.810;9.120;2023-05-10T13:22:38;16.60;66.60
210;DHT22;90;48.810;9.120;2023-05-10T13:25:05;16.60;65.90
210;DHT22;90;48.810;9.120;2023-05-10T13:27:32;16.60;65.90
210;DHT22;90;48.810;9.120;2023-05-10T13:29:59;16.50;65.10
210;DHT22;90;48.810;9.120;2023-05-10T13:32:27;16.40;65.60
210;DHT22;90;48.810;9.120;2023-05-10T13:34:54;16.50;64.80
210;DHT22;90;48.810;9.120;2023-05-10T13:37:20;16.50;64.90
210;DHT22;90;48.810;9.120;2023-05-10T13:39:47;16.40;65.70
210;DHT22;90;48.810;9.120;2023-05-10T13:42:14;16.40;66.20
210;DHT22;90;48.810;9.120;2023-05-10T13:44:41;16.40;66.20
210;DHT22;90;48.810;9.120;2023-05-10T13:47:08;16.50;66.00
210;DHT22;90;48.810;9.120;2023-05-10T13:49:37;16.40;65.90
210;DHT22;90;48.810;9.120;2023-05-10T13:52:04;16.40;65.30
210;DHT22;90;48.810;9.120;2023-05-10T13:54:32;16.30;64.80
210;DHT22;90;48.810;9.120;2023-05-10T13:56:59;16.40;64.80
210;DHT22;90;48.810;9.120;2023-05-10T13:59:26;16.30;64.40
210;DHT22;90;48.810;9.120;2023-05-10T14:01:52;16.50;63.70
210;DHT22;90;48.810;9.120;2023-05-10T14:04:19;16.60;63.80
210;DHT22;90;48.810;9.120;2023-05-10T14:06:47;16.70;63.90
210;DHT22;90;48.810;9.120;2023-05-10T14:09:14;16.80;63.70
210;DHT22;90;48.810;9.120;2023-05-10T14:11:41;16.90;62.20
210;DHT22;90;48.810;9.120;2023-05-10T14:14:08;17.00;61.30
210;DHT22;90;48.810;9.120;2023-05-10T14:16:35;17.10;60.00
210;DHT22;90;48.810;9.120;2023-05-10T14:19:02;17.00;60.70
210;DHT22;90;48.810;9.120;2023-05-10T14:21:29;16.90;59.60
210;DHT22;90;48.810;9.120;2023-05-10T14:23:57;16.90;59.20
210;DHT22;90;48.810;9.120;2023-05-10T14:26:24;16.80;60.20
210;DHT22;90;48.810;9.120;2023-05-10T14:28:57;16.80;60.40
210;DHT22;90;48.810;9.120;2023-05-10T14:31:24;16.80;61.90
210;DHT22;90;48.810;9.120;2023-05-10T14:33:52;16.80;62.20
210;DHT22;90;48.810;9.120;2023-05-10T14:36:18;16.90;61.80
210;DHT22;90;48.810;9.120;2023-05-10T14:38:45;16.90;61.90
210;DHT22;90;48.810;9.120;2023-05-10T14:41:13;17.00;62.20
210;DHT22;90;48.810;9.120;2023-05-10T14:43:40;17.00;61.90
210;DHT22;90;48.810;9.120;2023-05-10T14:46:10;17.10;62.00
210;DHT22;90;48.810;9.120;2023-05-10T14:48:36;17.10;62.30
210;DHT22;90;48.810;9.120;2023-05-10T14:51:03;17.10;62.30
210;DHT22;90;48.810;9.120;2023-05-10T14:53:30;17.10;61.00
210;DHT22;90;48.810;9.120;2023-05-10T14:55:56;17.10;60.60
210;DHT22;90;48.810;9.120;2023-05-10T14:58:27;17.10;61.70
210;DHT22;90;48.810;9.120;2023-05-10T15:00:53;17.10;60.50
210;DHT22;90;48.810;9.120;2023-05-10T15:03:20;17.00;61.20
210;DHT22;90;48.810;9.120;2023-05-10T15:05:47;16.90;60.20
210;DHT22;90;48.810;9.120;2023-05-10T15:08:14;17.00;61.80
210;DHT22;90;48.810;9.120;2023-05-10T15:10:41;17.00;62.60
210;DHT22;90;48.810;9.120;2023-05-10T15:13:08;17.00;62.70
210;DHT22;90;48.810;9.120;2023-05-10T15:15:36;17.10;62.70
210;DHT22;90;48.810;9.120;2023-05-10T15:18:03;17.10;62.20
210;DHT22;90;48.810;9.120;2023-05-10T15:20:31;17.20;62.30
210;DHT22;90;48.810;9.120;2023-05-10T15:22:57;17.30;62.40
210;DHT22;90;48.810;9.120;2023-05-10T15:25:24;17.40;62.20
210;DHT22;90;48.810;9.120;2023-05-10T15:27:54;17.40;61.80
210;DHT22;90;48.810;9.120;2023-05-10T15:30:21;17.40;61.80
210;DHT22;90;48.810;9.120;2023-05-10T15:32:49;17.30;61.30
210;DHT22;90;48.810;9.120;2023-05-10T15:35:16;17.40;62.30
210;DHT22;90;48.810;9.120;2023-05-10T15:37:42;17.40;62.70
210;DHT22;90;48.810;9.120;2023-05-10T15:40:10;17.30;61.20
210;DHT22;90;48.810;9.120;2023-05-10T15:42:37;17.20;62.10
210;DHT22;90;48.810;9.120;2023-05-10T15:45:04;17.10;63.00
210;DHT22;90;48.810;9.120;2023-05-10T15:47:31;17.10;61.40
210;DHT22;90;48.810;9.120;2023-05-10T15:49:59;17.10;61.70
210;DHT22;90;48.810;9.120;2023-05-10T15:52:26;17.10;62.40
210;DHT22;90;48.810;9.120;2023-05-10T15:54:53;17.10;60.70
210;DHT22;90;48.810;9.120;2023-05-10T15:57:20;17.20;60.00
210;DHT22;90;48.810;9.120;2023-05-10T15:59:46;17.20;58.80
210;DHT22;90;48.810;9.120;2023-05-10T16:02:13;17.30;59.40
210;DHT22;90;48.810;9.120;2023-05-10T16:04:40;17.30;60.00
210;DHT22;90;48.810;9.120;2023-05-10T16:07:08;17.20;59.00
210;DHT22;90;48.810;9.120;2023-05-10T16:09:35;17.10;60.10
210;DHT22;90;48.810;9.120;2023-05-10T16:12:01;17.00;59.80
210;DHT22;90;48.810;9.120;2023-05-10T16:14:28;17.00;59.90
210;DHT22;90;48.810;9.120;2023-05-10T16:16:55;16.90;60.00
210;DHT22;90;48.810;9.120;2023-05-10T16:19:22;17.00;59.40
210;DHT22;90;48.810;9.120;2023-05-10T16:21:49;16.90;60.50
210;DHT22;90;48.810;9.120;2023-05-10T16:24:17;16.90;60.80
210;DHT22;90;48.810;9.120;2023-05-10T16:26:44;16.90;59.80
210;DHT22;90;48.810;9.120;2023-05-10T16:29:10;16.80;60.30
210;DHT22;90;48.810;9.120;2023-05-10T16:31:37;16.90;60.70
210;DHT22;90;48.810;9.120;2023-05-10T16:34:04;16.90;61.00
210;DHT22;90;48.810;9.120;2023-05-10T16:36:30;16.90;61.50
210;DHT22;90;48.810;9.120;2023-05-10T16:38:57;16.90;60.90
210;DHT22;90;48.810;9.120;2023-05-10T16:41:25;16.90;60.40
210;DHT22;90;48.810;9.120;2023-05-10T16:43:53;16.80;60.80
210;DHT22;90;48.810;9.120;2023-05-10T16:46:22;16.80;61.10
210;DHT22;90;48.810;9.120;2023-05-10T16:48:48;16.80;61.20
210;DHT22;90;48.810;9.120;2023-05-10T16:51:15;16.80;60.70
210;DHT22;90;48.810;9.120;2023-05-10T16:53:42;16.80;60.60
210;DHT22;90;48.810;9.120;2023-05-10T16:56:09;16.70;61.20
210;DHT22;90;48.810;9.120;2023-05-10T16:58:37;16.60;62.30
210;DHT22;90;48.810;9.120;2023-05-10T17:01:04;16.60;62.60